sensor_id;sensor_type;location;lat;lon;timestamp;temperature;humidity
9723;DHT22;4900;49.306;8.500;2023-01-19T00:03:03;0.37;78.41
9723;DHT22;4900;49.306;8.500;2023-01-19T00:06:07;0.36;78.60
9723;DHT22;4900;49.306;8.500;2023-01-19T00:09:10;0.40;78.71
9723;DHT22;4900;49.306;8.500;2023-01-19T00:12:13;0.37;79.04
9723;DHT22;4900;49.306;8.500;2023-01-19T00:15:16;0.41;79.06
9723;DHT22;4900;49.306;8.500;2023-01-19T00:18:19;0.44;79.11
9723;DHT22;4900;49.306;8.500;2023-01-19T00:21:23;0.44;78.98
9723;DHT22;4900;49.306;8.500;2023-01-19T00:24:26;0.47;79.06
9723;DHT22;4900;49.306;8.500;2023-01-19T00:27:29;0.45;79.17
9723;DHT22;4900;49.306;8.500;2023-01-19T00:30:37;0.50;79.19
9723;DHT22;4900;49.306;8.500;2023-01-19T00:33:41;0.45;79.12
9723;DHT22;4900;49.306;8.500;2023-01-19T00:36:44;0.48;79.26
9723;DHT22;4900;49.306;8.500;2023-01-19T00:39:46;0.44;79.33
9723;DHT22;4900;49.306;8.500;2023-01-19T00:42:49;0.48;79.45
9723;DHT22;4900;49.306;8.500;2023-01-19T00:45:52;0.48;79.43
9723;DHT22;4900;49.306;8.500;2023-01-19T00:48:55;0.50;79.19
9723;DHT22;4900;49.306;8.500;2023-01-19T00:51:58;0.50;79.11
9723;DHT22;4900;49.306;8.500;2023-01-19T00:55:00;0.48;79.08
9723;DHT22;4900;49.306;8.500;2023-01-19T00:58:03;0.42;79.33
9723;DHT22;4900;49.306;8.500;2023-01-19T01:01:08;0.44;79.44
9723;DHT22;4900;49.306;8.500;2023-01-19T01:04:10;0.45;79.42
9723;DHT22;4900;49.306;8.500;2023-01-19T01:07:15;0.48;79.51
9723;DHT22;4900;49.306;8.500;2023-01-19T01:10:26;0.44;79.62
9723;DHT22;4900;49.306;8.500;2023-01-19T01:13:29;0.45;79.75
9723;DHT22;4900;49.306;8.500;2023-01-19T01:16:32;0.50;79.69
9723;DHT22;4900;49.306;8.500;2023-01-19T01:19:41;0.50;79.75
9723;DHT22;4900;49.306;8.500;2023-01-19T01:22:46;0.52;79.66
9723;DHT22;4900;49.306;8.500;2023-01-19T01:25:49;0.50;79.54
9723;DHT22;4900;49.306;8.500;2023-01-19T01:28:52;0.48;79.64
9723;DHT22;4900;49.306;8.500;2023-01-19T01:31:55;0.50;79.58
9723;DHT22;4900;49.306;8.500;2023-01-19T01:34:58;0.50;79.66
9723;DHT22;4900;49.306;8.500;2023-01-19T01:38:01;0.48;79.66
9723;DHT22;4900;49.306;8.500;2023-01-19T01:41:04;0.51;79.73
9723;DHT22;4900;49.306;8.500;2023-01-19T01:47:52;0.48;79.69
9723;DHT22;4900;49.306;8.500;2023-01-19T01:50:59;0.48;79.74
9723;DHT22;4900;49.306;8.500;2023-01-19T01:54:28;0.42;79.85
9723;DHT22;4900;49.306;8.500;2023-01-19T01:57:36;0.41;79.85
9723;DHT22;4900;49.306;8.500;2023-01-19T02:00:41;0.42;79.80
9723;DHT22;4900;49.306;8.500;2023-01-19T02:04:03;0.45;79.94
9723;DHT22;4900;49.306;8.500;2023-01-19T02:07:06;0.47;80.09
9723;DHT22;4900;49.306;8.500;2023-01-19T02:10:28;0.52;80.20
9723;DHT22;4900;49.306;8.500;2023-01-19T02:13:50;0.55;80.47
9723;DHT22;4900;49.306;8.500;2023-01-19T02:16:53;0.64;80.52
9723;DHT22;4900;49.306;8.500;2023-01-19T02:19:56;0.70;80.48
9723;DHT22;4900;49.306;8.500;2023-01-19T02:23:02;0.73;80.39
9723;DHT22;4900;49.306;8.500;2023-01-19T02:26:08;0.76;80.21
9723;DHT22;4900;49.306;8.500;2023-01-19T02:29:15;0.76;80.02
9723;DHT22;4900;49.306;8.500;2023-01-19T02:32:19;0.78;79.82
9723;DHT22;4900;49.306;8.500;2023-01-19T02:35:22;0.78;79.56
9723;DHT22;4900;49.306;8.500;2023-01-19T02:38:27;0.76;79.49
9723;DHT22;4900;49.306;8.500;2023-01-19T02:41:34;0.69;79.64
9723;DHT22;4900;49.306;8.500;2023-01-19T02:44:42;0.69;79.61
9723;DHT22;4900;49.306;8.500;2023-01-19T02:47:48;0.70;79.71
9723;DHT22;4900;49.306;8.500;2023-01-19T02:50:53;0.68;79.71
9723;DHT22;4900;49.306;8.500;2023-01-19T02:57:59;0.65;80.12
9723;DHT22;4900;49.306;8.500;2023-01-19T03:01:22;0.69;80.25
9723;DHT22;4900;49.306;8.500;2023-01-19T03:11:11;0.64;80.44
9723;DHT22;4900;49.306;8.500;2023-01-19T03:14:19;0.65;80.39
9723;DHT22;4900;49.306;8.500;2023-01-19T03:17:24;0.66;80.22
9723;DHT22;4900;49.306;8.500;2023-01-19T03:20:31;0.66;80.16
9723;DHT22;4900;49.306;8.500;2023-01-19T03:23:36;0.65;79.96
9723;DHT22;4900;49.306;8.500;2023-01-19T03:26:46;0.64;80.06
9723;DHT22;4900;49.306;8.500;2023-01-19T03:29:57;0.59;80.12
9723;DHT22;4900;49.306;8.500;2023-01-19T03:33:16;0.61;80.19
9723;DHT22;4900;49.306;8.500;2023-01-19T03:36:36;0.58;80.36
9723;DHT22;4900;49.306;8.500;2023-01-19T03:39:43;0.61;80.61
9723;DHT22;4900;49.306;8.500;2023-01-19T03:42:48;0.65;80.84
9723;DHT22;4900;49.306;8.500;2023-01-19T03:45:52;0.70;81.05
9723;DHT22;4900;49.306;8.500;2023-01-19T03:48:56;0.73;80.96
9723;DHT22;4900;49.306;8.500;2023-01-19T03:51:59;0.76;80.71
9723;DHT22;4900;49.306;8.500;2023-01-19T03:55:04;0.73;80.63
9723;DHT22;4900;49.306;8.500;2023-01-19T03:58:08;0.70;80.78
9723;DHT22;4900;49.306;8.500;2023-01-19T04:01:12;0.73;80.88
9723;DHT22;4900;49.306;8.500;2023-01-19T04:04:16;0.72;81.25
9723;DHT22;4900;49.306;8.500;2023-01-19T04:07:19;0.80;81.25
9723;DHT22;4900;49.306;8.500;2023-01-19T04:10:22;0.86;81.05
9723;DHT22;4900;49.306;8.500;2023-01-19T04:13:25;0.82;80.79
9723;DHT22;4900;49.306;8.500;2023-01-19T04:16:32;0.80;80.46
9723;DHT22;4900;49.306;8.500;2023-01-19T04:19:34;0.78;80.36
9723;DHT22;4900;49.306;8.500;2023-01-19T04:22:37;0.75;80.45
9723;DHT22;4900;49.306;8.500;2023-01-19T04:25:41;0.70;80.58
9723;DHT22;4900;49.306;8.500;2023-01-19T04:28:44;0.68;80.63
9723;DHT22;4900;49.306;8.500;2023-01-19T04:31:47;0.68;80.73
9723;DHT22;4900;49.306;8.500;2023-01-19T04:34:50;0.64;80.67
9723;DHT22;4900;49.306;8.500;2023-01-19T04:37:53;0.65;80.74
9723;DHT22;4900;49.306;8.500;2023-01-19T04:40:56;0.62;80.51
9723;DHT22;4900;49.306;8.500;2023-01-19T04:43:59;0.65;80.38
9723;DHT22;4900;49.306;8.500;2023-01-19T04:47:02;0.57;80.45
9723;DHT22;4900;49.306;8.500;2023-01-19T04:50:05;0.59;80.82
9723;DHT22;4900;49.306;8.500;2023-01-19T04:53:09;0.62;81.39
9723;DHT22;4900;49.306;8.500;2023-01-19T04:56:12;0.69;81.87
9723;DHT22;4900;49.306;8.500;2023-01-19T04:59:15;0.76;81.97
9723;DHT22;4900;49.306;8.500;2023-01-19T05:02:18;0.82;81.82
9723;DHT22;4900;49.306;8.500;2023-01-19T05:05:21;0.83;81.90
9723;DHT22;4900;49.306;8.500;2023-01-19T05:08:24;0.89;81.90
9723;DHT22;4900;49.306;8.500;2023-01-19T05:11:27;0.92;81.96
9723;DHT22;4900;49.306;8.500;2023-01-19T05:14:30;0.96;81.87
9723;DHT22;4900;49.306;8.500;2023-01-19T05:17:33;0.97;81.53
9723;DHT22;4900;49.306;8.500;2023-01-19T05:20:36;1.00;81.04
9723;DHT22;4900;49.306;8.500;2023-01-19T05:23:39;0.92;80.73
9723;DHT22;4900;49.306;8.500;2023-01-19T05:26:42;0.85;80.84
9723;DHT22;4900;49.306;8.500;2023-01-19T05:29:45;0.80;80.86
9723;DHT22;4900;49.306;8.500;2023-01-19T05:32:48;0.78;80.99
9723;DHT22;4900;49.306;8.500;2023-01-19T05:35:52;0.76;81.10
9723;DHT22;4900;49.306;8.500;2023-01-19T05:38:55;0.72;81.07
9723;DHT22;4900;49.306;8.500;2023-01-19T05:41:58;0.69;81.25
9723;DHT22;4900;49.306;8.500;2023-01-19T05:45:01;0.72;81.15
9723;DHT22;4900;49.306;8.500;2023-01-19T05:48:05;0.66;80.91
9723;DHT22;4900;49.306;8.500;2023-01-19T05:51:08;0.61;80.74
9723;DHT22;4900;49.306;8.500;2023-01-19T05:54:12;0.61;80.83
9723;DHT22;4900;49.306;8.500;2023-01-19T05:57:19;0.55;81.13
9723;DHT22;4900;49.306;8.500;2023-01-19T06:00:22;0.58;81.01
9723;DHT22;4900;49.306;8.500;2023-01-19T06:03:26;0.54;81.12
9723;DHT22;4900;49.306;8.500;2023-01-19T06:06:29;0.52;81.30
9723;DHT22;4900;49.306;8.500;2023-01-19T06:09:32;0.59;81.58
9723;DHT22;4900;49.306;8.500;2023-01-19T06:12:37;0.59;81.69
9723;DHT22;4900;49.306;8.500;2023-01-19T06:15:40;0.64;81.78
9723;DHT22;4900;49.306;8.500;2023-01-19T06:18:45;0.66;81.82
9723;DHT22;4900;49.306;8.500;2023-01-19T06:21:48;0.72;81.68
9723;DHT22;4900;49.306;8.500;2023-01-19T06:24:54;0.70;81.81
9723;DHT22;4900;49.306;8.500;2023-01-19T06:27:57;0.72;81.86
9723;DHT22;4900;49.306;8.500;2023-01-19T06:31:00;0.75;81.92
9723;DHT22;4900;49.306;8.500;2023-01-19T06:34:03;0.72;81.80
9723;DHT22;4900;49.306;8.500;2023-01-19T06:37:06;0.70;81.85
9723;DHT22;4900;49.306;8.500;2023-01-19T06:40:09;0.69;81.73
9723;DHT22;4900;49.306;8.500;2023-01-19T06:43:13;0.72;81.75
9723;DHT22;4900;49.306;8.500;2023-01-19T06:46:16;0.72;81.95
9723;DHT22;4900;49.306;8.500;2023-01-19T06:49:19;0.79;82.10
9723;DHT22;4900;49.306;8.500;2023-01-19T06:52:22;0.92;82.04
9723;DHT22;4900;49.306;8.500;2023-01-19T06:55:25;0.97;82.09
9723;DHT22;4900;49.306;8.500;2023-01-19T06:58:29;1.04;82.06
9723;DHT22;4900;49.306;8.500;2023-01-19T07:01:32;1.13;81.99
9723;DHT22;4900;49.306;8.500;2023-01-19T07:04:35;1.19;81.84
9723;DHT22;4900;49.306;8.500;2023-01-19T07:07:39;1.21;81.76
9723;DHT22;4900;49.306;8.500;2023-01-19T07:10:42;1.27;81.71
9723;DHT22;4900;49.306;8.500;2023-01-19T07:13:45;1.31;81.61
9723;DHT22;4900;49.306;8.500;2023-01-19T07:16:53;1.37;81.61
9723;DHT22;4900;49.306;8.500;2023-01-19T07:19:56;1.41;81.45
9723;DHT22;4900;49.306;8.500;2023-01-19T07:22:59;1.47;81.48
9723;DHT22;4900;49.306;8.500;2023-01-19T07:26:02;1.44;81.57
9723;DHT22;4900;49.306;8.500;2023-01-19T07:29:05;1.52;81.53
9723;DHT22;4900;49.306;8.500;2023-01-19T07:32:08;1.56;81.45
9723;DHT22;4900;49.306;8.500;2023-01-19T07:35:11;1.59;81.44
9723;DHT22;4900;49.306;8.500;2023-01-19T07:38:15;1.62;81.28
9723;DHT22;4900;49.306;8.500;2023-01-19T07:41:19;1.61;81.31
9723;DHT22;4900;49.306;8.500;2023-01-19T07:44:22;1.62;81.18
9723;DHT22;4900;49.306;8.500;2023-01-19T07:47:25;1.69;80.99
9723;DHT22;4900;49.306;8.500;2023-01-19T07:50:28;1.75;81.03
9723;DHT22;4900;49.306;8.500;2023-01-19T07:53:31;1.80;80.81
9723;DHT22;4900;49.306;8.500;2023-01-19T07:56:34;1.85;80.61
9723;DHT22;4900;49.306;8.500;2023-01-19T07:59:37;1.90;80.63
9723;DHT22;4900;49.306;8.500;2023-01-19T08:02:40;1.91;80.44
9723;DHT22;4900;49.306;8.500;2023-01-19T08:05:44;1.94;80.30
9723;DHT22;4900;49.306;8.500;2023-01-19T08:08:51;1.93;80.20
9723;DHT22;4900;49.306;8.500;2023-01-19T08:11:55;1.93;80.20
9723;DHT22;4900;49.306;8.500;2023-01-19T08:14:58;2.06;80.20
9723;DHT22;4900;49.306;8.500;2023-01-19T08:18:02;2.14;79.97
9723;DHT22;4900;49.306;8.500;2023-01-19T08:21:11;2.21;79.81
9723;DHT22;4900;49.306;8.500;2023-01-19T08:24:18;2.31;79.74
9723;DHT22;4900;49.306;8.500;2023-01-19T08:27:23;2.37;79.74
9723;DHT22;4900;49.306;8.500;2023-01-19T08:30:26;2.42;79.64
9723;DHT22;4900;49.306;8.500;2023-01-19T08:33:29;2.45;79.62
9723;DHT22;4900;49.306;8.500;2023-01-19T08:36:33;2.44;79.55
9723;DHT22;4900;49.306;8.500;2023-01-19T08:39:36;2.48;79.61
9723;DHT22;4900;49.306;8.500;2023-01-19T08:42:39;2.46;79.37
9723;DHT22;4900;49.306;8.500;2023-01-19T08:45:44;2.49;79.33
9723;DHT22;4900;49.306;8.500;2023-01-19T08:48:51;2.58;79.18
9723;DHT22;4900;49.306;8.500;2023-01-19T08:51:54;2.63;78.90
9723;DHT22;4900;49.306;8.500;2023-01-19T08:54:57;2.75;78.76
9723;DHT22;4900;49.306;8.500;2023-01-19T08:58:00;2.81;78.66
9723;DHT22;4900;49.306;8.500;2023-01-19T09:01:06;2.91;78.44
9723;DHT22;4900;49.306;8.500;2023-01-19T09:04:10;2.93;78.25
9723;DHT22;4900;49.306;8.500;2023-01-19T09:07:13;3.03;78.02
9723;DHT22;4900;49.306;8.500;2023-01-19T09:10:16;3.14;77.97
9723;DHT22;4900;49.306;8.500;2023-01-19T09:13:20;3.18;77.62
9723;DHT22;4900;49.306;8.500;2023-01-19T09:16:22;3.28;77.52
9723;DHT22;4900;49.306;8.500;2023-01-19T09:19:28;3.35;77.28
9723;DHT22;4900;49.306;8.500;2023-01-19T09:22:33;3.43;76.93
9723;DHT22;4900;49.306;8.500;2023-01-19T09:25:44;3.49;76.79
9723;DHT22;4900;49.306;8.500;2023-01-19T09:28:47;3.45;76.56
9723;DHT22;4900;49.306;8.500;2023-01-19T09:31:50;3.55;76.46
9723;DHT22;4900;49.306;8.500;2023-01-19T09:34:53;3.58;76.34
9723;DHT22;4900;49.306;8.500;2023-01-19T09:37:57;3.51;76.45
9723;DHT22;4900;49.306;8.500;2023-01-19T09:41:00;3.41;76.49
9723;DHT22;4900;49.306;8.500;2023-01-19T09:44:03;3.43;76.42
9723;DHT22;4900;49.306;8.500;2023-01-19T09:47:16;3.39;76.42
9723;DHT22;4900;49.306;8.500;2023-01-19T09:50:27;3.41;76.45
9723;DHT22;4900;49.306;8.500;2023-01-19T09:54:14;3.43;76.43
9723;DHT22;4900;49.306;8.500;2023-01-19T09:57:16;3.38;76.65
9723;DHT22;4900;49.306;8.500;2023-01-19T10:00:19;3.32;76.57
9723;DHT22;4900;49.306;8.500;2023-01-19T10:03:24;3.38;76.62
9723;DHT22;4900;49.306;8.500;2023-01-19T10:06:27;3.36;76.46
9723;DHT22;4900;49.306;8.500;2023-01-19T10:19:19;3.91;75.73
9723;DHT22;4900;49.306;8.500;2023-01-19T10:22:25;4.04;75.20
9723;DHT22;4900;49.306;8.500;2023-01-19T10:25:30;4.21;74.85
9723;DHT22;4900;49.306;8.500;2023-01-19T10:28:35;4.74;74.38
9723;DHT22;4900;49.306;8.500;2023-01-19T10:31:41;5.26;72.75
9723;DHT22;4900;49.306;8.500;2023-01-19T10:34:47;5.43;71.36
9723;DHT22;4900;49.306;8.500;2023-01-19T10:37:54;5.29;71.29
9723;DHT22;4900;49.306;8.500;2023-01-19T10:41:02;5.44;70.95
9723;DHT22;4900;49.306;8.500;2023-01-19T10:44:07;5.56;70.56
9723;DHT22;4900;49.306;8.500;2023-01-19T10:47:20;5.44;70.69
9723;DHT22;4900;49.306;8.500;2023-01-19T10:50:28;5.46;70.40
9723;DHT22;4900;49.306;8.500;2023-01-19T10:53:31;5.33;71.05
9723;DHT22;4900;49.306;8.500;2023-01-19T10:56:36;5.75;70.35
9723;DHT22;4900;49.306;8.500;2023-01-19T11:02:49;6.45;67.99
9723;DHT22;4900;49.306;8.500;2023-01-19T11:09:20;6.50;67.20
9723;DHT22;4900;49.306;8.500;2023-01-19T11:12:23;6.48;67.56
9723;DHT22;4900;49.306;8.500;2023-01-19T11:15:51;6.19;67.66
9723;DHT22;4900;49.306;8.500;2023-01-19T11:18:54;6.09;67.95
9723;DHT22;4900;49.306;8.500;2023-01-19T11:22:17;6.32;67.84
9723;DHT22;4900;49.306;8.500;2023-01-19T11:25:28;6.29;67.70
9723;DHT22;4900;49.306;8.500;2023-01-19T11:28:39;6.23;67.78
9723;DHT22;4900;49.306;8.500;2023-01-19T11:31:43;6.16;68.19
9723;DHT22;4900;49.306;8.500;2023-01-19T11:34:46;6.05;68.20
9723;DHT22;4900;49.306;8.500;2023-01-19T11:44:24;6.10;67.96
9723;DHT22;4900;49.306;8.500;2023-01-19T11:47:34;6.09;67.95
9723;DHT22;4900;49.306;8.500;2023-01-19T11:50:42;6.10;67.87
9723;DHT22;4900;49.306;8.500;2023-01-19T11:53:50;5.88;68.29
9723;DHT22;4900;49.306;8.500;2023-01-19T11:56:54;5.88;68.30
9723;DHT22;4900;49.306;8.500;2023-01-19T12:00:03;5.78;68.55
9723;DHT22;4900;49.306;8.500;2023-01-19T12:06:29;5.71;68.74
9723;DHT22;4900;49.306;8.500;2023-01-19T12:09:38;5.77;68.70
9723;DHT22;4900;49.306;8.500;2023-01-19T12:12:44;5.53;69.01
9723;DHT22;4900;49.306;8.500;2023-01-19T12:19:25;5.66;68.93
9723;DHT22;4900;49.306;8.500;2023-01-19T12:22:36;5.50;69.25
9723;DHT22;4900;49.306;8.500;2023-01-19T12:29:17;5.59;69.27
9723;DHT22;4900;49.306;8.500;2023-01-19T12:32:32;5.85;69.03
9723;DHT22;4900;49.306;8.500;2023-01-19T12:35:59;6.01;68.86
9723;DHT22;4900;49.306;8.500;2023-01-19T12:39:14;6.17;67.87
9723;DHT22;4900;49.306;8.500;2023-01-19T12:42:18;6.36;67.22
9723;DHT22;4900;49.306;8.500;2023-01-19T12:45:24;6.64;66.78
9723;DHT22;4900;49.306;8.500;2023-01-19T12:48:30;7.07;65.88
9723;DHT22;4900;49.306;8.500;2023-01-19T12:51:34;7.22;65.09
9723;DHT22;4900;49.306;8.500;2023-01-19T12:54:40;7.37;64.56
9723;DHT22;4900;49.306;8.500;2023-01-19T12:57:53;7.45;63.89
9723;DHT22;4900;49.306;8.500;2023-01-19T13:01:13;7.74;63.54
9723;DHT22;4900;49.306;8.500;2023-01-19T13:04:30;7.93;62.83
9723;DHT22;4900;49.306;8.500;2023-01-19T13:11:15;7.54;62.74
9723;DHT22;4900;49.306;8.500;2023-01-19T13:14:48;7.31;62.54
9723;DHT22;4900;49.306;8.500;2023-01-19T13:17:53;7.30;62.97
9723;DHT22;4900;49.306;8.500;2023-01-19T13:21:02;7.28;63.00
9723;DHT22;4900;49.306;8.500;2023-01-19T13:24:11;6.92;63.52
9723;DHT22;4900;49.306;8.500;2023-01-19T13:27:14;6.84;64.24
9723;DHT22;4900;49.306;8.500;2023-01-19T13:30:18;6.71;64.54
9723;DHT22;4900;49.306;8.500;2023-01-19T13:33:26;6.50;65.31
9723;DHT22;4900;49.306;8.500;2023-01-19T13:36:37;6.58;65.37
9723;DHT22;4900;49.306;8.500;2023-01-19T13:39:44;6.43;65.69
9723;DHT22;4900;49.306;8.500;2023-01-19T13:42:48;6.48;65.60
9723;DHT22;4900;49.306;8.500;2023-01-19T13:45:54;6.45;65.84
9723;DHT22;4900;49.306;8.500;2023-01-19T13:49:04;6.36;65.76
9723;DHT22;4900;49.306;8.500;2023-01-19T13:52:22;6.29;65.99
9723;DHT22;4900;49.306;8.500;2023-01-19T13:55:27;6.36;65.86
9723;DHT22;4900;49.306;8.500;2023-01-19T13:58:30;6.16;65.90
9723;DHT22;4900;49.306;8.500;2023-01-19T14:01:34;6.08;65.56
9723;DHT22;4900;49.306;8.500;2023-01-19T14:04:37;6.22;65.61
9723;DHT22;4900;49.306;8.500;2023-01-19T14:07:41;5.99;65.92
9723;DHT22;4900;49.306;8.500;2023-01-19T14:14:03;5.81;66.13
9723;DHT22;4900;49.306;8.500;2023-01-19T14:20:29;5.82;66.25
9723;DHT22;4900;49.306;8.500;2023-01-19T14:23:48;5.84;66.32
9723;DHT22;4900;49.306;8.500;2023-01-19T14:26:53;5.87;66.25
9723;DHT22;4900;49.306;8.500;2023-01-19T14:30:21;5.75;66.24
9723;DHT22;4900;49.306;8.500;2023-01-19T14:33:40;5.75;66.55
9723;DHT22;4900;49.306;8.500;2023-01-19T14:36:43;5.63;66.42
9723;DHT22;4900;49.306;8.500;2023-01-19T14:39:53;5.70;66.20
9723;DHT22;4900;49.306;8.500;2023-01-19T14:42:59;5.64;66.03
9723;DHT22;4900;49.306;8.500;2023-01-19T14:46:05;5.60;66.16
9723;DHT22;4900;49.306;8.500;2023-01-19T14:49:18;5.60;66.06
9723;DHT22;4900;49.306;8.500;2023-01-19T14:52:25;5.60;66.22
9723;DHT22;4900;49.306;8.500;2023-01-19T14:58:39;5.47;66.49
9723;DHT22;4900;49.306;8.500;2023-01-19T15:01:42;5.51;66.41
9723;DHT22;4900;49.306;8.500;2023-01-19T15:04:45;5.50;66.40
9723;DHT22;4900;49.306;8.500;2023-01-19T15:07:49;5.48;66.39
9723;DHT22;4900;49.306;8.500;2023-01-19T15:10:53;5.50;66.43
9723;DHT22;4900;49.306;8.500;2023-01-19T15:13:57;5.37;66.60
9723;DHT22;4900;49.306;8.500;2023-01-19T15:17:00;5.27;67.02
9723;DHT22;4900;49.306;8.500;2023-01-19T15:20:10;5.27;67.16
9723;DHT22;4900;49.306;8.500;2023-01-19T15:23:14;5.08;67.22
9723;DHT22;4900;49.306;8.500;2023-01-19T15:26:19;5.08;67.29
9723;DHT22;4900;49.306;8.500;2023-01-19T15:29:24;5.16;67.08
9723;DHT22;4900;49.306;8.500;2023-01-19T15:32:27;5.09;67.54
9723;DHT22;4900;49.306;8.500;2023-01-19T15:35:30;5.08;67.38
9723;DHT22;4900;49.306;8.500;2023-01-19T15:38:34;5.09;67.66
9723;DHT22;4900;49.306;8.500;2023-01-19T15:41:38;5.08;67.83
9723;DHT22;4900;49.306;8.500;2023-01-19T15:44:41;5.06;67.90
9723;DHT22;4900;49.306;8.500;2023-01-19T15:47:46;4.98;68.16
9723;DHT22;4900;49.306;8.500;2023-01-19T15:50:49;4.98;67.97
9723;DHT22;4900;49.306;8.500;2023-01-19T15:53:53;4.92;67.95
9723;DHT22;4900;49.306;8.500;2023-01-19T15:56:56;4.77;67.80
9723;DHT22;4900;49.306;8.500;2023-01-19T15:59:59;4.78;67.75
9723;DHT22;4900;49.306;8.500;2023-01-19T16:03:02;4.70;67.96
9723;DHT22;4900;49.306;8.500;2023-01-19T16:06:06;4.69;68.00
9723;DHT22;4900;49.306;8.500;2023-01-19T16:09:09;4.66;68.08
9723;DHT22;4900;49.306;8.500;2023-01-19T16:12:15;4.60;68.43
9723;DHT22;4900;49.306;8.500;2023-01-19T16:15:18;4.53;68.47
9723;DHT22;4900;49.306;8.500;2023-01-19T16:18:21;4.40;68.74
9723;DHT22;4900;49.306;8.500;2023-01-19T16:21:24;4.46;68.49
9723;DHT22;4900;49.306;8.500;2023-01-19T16:24:27;4.40;68.62
9723;DHT22;4900;49.306;8.500;2023-01-19T16:27:30;4.40;68.62
9723;DHT22;4900;49.306;8.500;2023-01-19T16:30:34;4.40;68.59
9723;DHT22;4900;49.306;8.500;2023-01-19T16:33:36;4.29;68.80
9723;DHT22;4900;49.306;8.500;2023-01-19T16:36:40;4.29;68.62
9723;DHT22;4900;49.306;8.500;2023-01-19T16:39:43;4.24;68.76
9723;DHT22;4900;49.306;8.500;2023-01-19T16:42:47;4.25;68.75
9723;DHT22;4900;49.306;8.500;2023-01-19T16:45:56;4.24;68.79
9723;DHT22;4900;49.306;8.500;2023-01-19T16:49:05;4.24;68.65
9723;DHT22;4900;49.306;8.500;2023-01-19T16:52:08;4.26;68.60
9723;DHT22;4900;49.306;8.500;2023-01-19T16:55:11;4.25;68.62
9723;DHT22;4900;49.306;8.500;2023-01-19T16:58:14;4.14;68.81
9723;DHT22;4900;49.306;8.500;2023-01-19T17:01:18;4.09;68.81
9723;DHT22;4900;49.306;8.500;2023-01-19T17:04:22;4.14;68.75
9723;DHT22;4900;49.306;8.500;2023-01-19T17:07:26;4.15;68.72
9723;DHT22;4900;49.306;8.500;2023-01-19T17:10:30;4.12;68.77
9723;DHT22;4900;49.306;8.500;2023-01-19T17:13:33;4.07;68.77
9723;DHT22;4900;49.306;8.500;2023-01-19T17:16:36;4.07;68.94
9723;DHT22;4900;49.306;8.500;2023-01-19T17:19:39;4.07;68.88
9723;DHT22;4900;49.306;8.500;2023-01-19T17:22:42;4.04;69.02
9723;DHT22;4900;49.306;8.500;2023-01-19T17:25:52;3.98;69.28
9723;DHT22;4900;49.306;8.500;2023-01-19T17:29:01;3.95;69.47
9723;DHT22;4900;49.306;8.500;2023-01-19T17:32:04;3.97;69.40
9723;DHT22;4900;49.306;8.500;2023-01-19T17:35:09;3.97;69.57
9723;DHT22;4900;49.306;8.500;2023-01-19T17:38:12;3.95;69.65
9723;DHT22;4900;49.306;8.500;2023-01-19T17:41:26;3.91;69.86
9723;DHT22;4900;49.306;8.500;2023-01-19T17:44:30;3.93;69.90
9723;DHT22;4900;49.306;8.500;2023-01-19T17:47:32;3.91;70.03
9723;DHT22;4900;49.306;8.500;2023-01-19T17:50:36;3.91;70.16
9723;DHT22;4900;49.306;8.500;2023-01-19T17:53:39;3.94;70.08
9723;DHT22;4900;49.306;8.500;2023-01-19T17:56:43;3.90;70.25
9723;DHT22;4900;49.306;8.500;2023-01-19T17:59:45;3.90;70.27
9723;DHT22;4900;49.306;8.500;2023-01-19T18:02:49;3.86;70.44
9723;DHT22;4900;49.306;8.500;2023-01-19T18:05:56;3.90;70.46
9723;DHT22;4900;49.306;8.500;2023-01-19T18:08:59;3.84;70.59
9723;DHT22;4900;49.306;8.500;2023-01-19T18:12:03;3.91;70.58
9723;DHT22;4900;49.306;8.500;2023-01-19T18:15:07;3.87;70.72
9723;DHT22;4900;49.306;8.500;2023-01-19T18:18:10;3.83;70.89
9723;DHT22;4900;49.306;8.500;2023-01-19T18:21:13;3.76;71.08
9723;DHT22;4900;49.306;8.500;2023-01-19T18:24:16;3.79;71.22
9723;DHT22;4900;49.306;8.500;2023-01-19T18:27:19;3.79;71.16
9723;DHT22;4900;49.306;8.500;2023-01-19T18:30:23;3.71;71.33
9723;DHT22;4900;49.306;8.500;2023-01-19T18:33:27;3.74;71.35
9723;DHT22;4900;49.306;8.500;2023-01-19T18:36:30;3.73;71.34
9723;DHT22;4900;49.306;8.500;2023-01-19T18:39:34;3.74;71.35
9723;DHT22;4900;49.306;8.500;2023-01-19T18:42:37;3.71;71.36
9723;DHT22;4900;49.306;8.500;2023-01-19T18:45:40;3.70;71.49
9723;DHT22;4900;49.306;8.500;2023-01-19T18:48:44;3.70;71.53
9723;DHT22;4900;49.306;8.500;2023-01-19T18:51:48;3.74;71.48
9723;DHT22;4900;49.306;8.500;2023-01-19T18:54:51;3.71;71.51
9723;DHT22;4900;49.306;8.500;2023-01-19T18:57:54;3.71;71.52
9723;DHT22;4900;49.306;8.500;2023-01-19T19:00:58;3.69;71.62
9723;DHT22;4900;49.306;8.500;2023-01-19T19:04:02;3.66;71.82
9723;DHT22;4900;49.306;8.500;2023-01-19T19:07:05;3.67;71.87
9723;DHT22;4900;49.306;8.500;2023-01-19T19:10:08;3.67;71.91
9723;DHT22;4900;49.306;8.500;2023-01-19T19:13:12;3.66;72.01
9723;DHT22;4900;49.306;8.500;2023-01-19T19:16:15;3.69;72.05
9723;DHT22;4900;49.306;8.500;2023-01-19T19:19:18;3.66;72.05
9723;DHT22;4900;49.306;8.500;2023-01-19T19:22:21;3.63;72.20
9723;DHT22;4900;49.306;8.500;2023-01-19T19:25:24;3.66;72.17
9723;DHT22;4900;49.306;8.500;2023-01-19T19:28:27;3.67;72.18
9723;DHT22;4900;49.306;8.500;2023-01-19T19:31:31;3.64;72.22
9723;DHT22;4900;49.306;8.500;2023-01-19T19:34:34;3.62;72.25
9723;DHT22;4900;49.306;8.500;2023-01-19T19:37:37;3.59;72.28
9723;DHT22;4900;49.306;8.500;2023-01-19T19:40:40;3.59;72.35
9723;DHT22;4900;49.306;8.500;2023-01-19T19:43:43;3.58;72.41
9723;DHT22;4900;49.306;8.500;2023-01-19T19:46:46;3.56;72.48
9723;DHT22;4900;49.306;8.500;2023-01-19T19:49:49;3.56;72.46
9723;DHT22;4900;49.306;8.500;2023-01-19T19:52:52;3.53;72.53
9723;DHT22;4900;49.306;8.500;2023-01-19T19:56:00;3.56;72.63
9723;DHT22;4900;49.306;8.500;2023-01-19T19:59:03;3.52;72.63
9723;DHT22;4900;49.306;8.500;2023-01-19T20:02:05;3.52;72.70
9723;DHT22;4900;49.306;8.500;2023-01-19T20:05:08;3.55;72.67
9723;DHT22;4900;49.306;8.500;2023-01-19T20:08:11;3.53;72.65
9723;DHT22;4900;49.306;8.500;2023-01-19T20:11:18;3.51;72.80
9723;DHT22;4900;49.306;8.500;2023-01-19T20:14:21;3.52;72.85
9723;DHT22;4900;49.306;8.500;2023-01-19T20:17:25;3.49;72.95
9723;DHT22;4900;49.306;8.500;2023-01-19T20:20:28;3.53;72.91
9723;DHT22;4900;49.306;8.500;2023-01-19T20:23:32;3.51;72.93
9723;DHT22;4900;49.306;8.500;2023-01-19T20:26:39;3.49;73.04
9723;DHT22;4900;49.306;8.500;2023-01-19T20:29:42;3.49;73.05
9723;DHT22;4900;49.306;8.500;2023-01-19T20:32:45;3.49;73.07
9723;DHT22;4900;49.306;8.500;2023-01-19T20:35:48;3.51;73.12
9723;DHT22;4900;49.306;8.500;2023-01-19T20:38:53;3.55;73.08
9723;DHT22;4900;49.306;8.500;2023-01-19T20:41:56;3.55;73.02
9723;DHT22;4900;49.306;8.500;2023-01-19T20:44:59;3.53;73.10
9723;DHT22;4900;49.306;8.500;2023-01-19T20:48:02;3.51;73.15
9723;DHT22;4900;49.306;8.500;2023-01-19T20:51:07;3.53;73.13
9723;DHT22;4900;49.306;8.500;2023-01-19T20:54:14;3.52;73.06
9723;DHT22;4900;49.306;8.500;2023-01-19T20:57:17;3.52;73.06
9723;DHT22;4900;49.306;8.500;2023-01-19T21:00:20;3.51;73.04
9723;DHT22;4900;49.306;8.500;2023-01-19T21:03:24;3.48;73.08
9723;DHT22;4900;49.306;8.500;2023-01-19T21:06:27;3.46;73.22
9723;DHT22;4900;49.306;8.500;2023-01-19T21:09:30;3.45;73.24
9723;DHT22;4900;49.306;8.500;2023-01-19T21:12:33;3.46;73.23
9723;DHT22;4900;49.306;8.500;2023-01-19T21:15:36;3.42;73.40
9723;DHT22;4900;49.306;8.500;2023-01-19T21:18:40;3.45;73.37
9723;DHT22;4900;49.306;8.500;2023-01-19T21:21:44;3.42;73.38
9723;DHT22;4900;49.306;8.500;2023-01-19T21:24:46;3.42;73.35
9723;DHT22;4900;49.306;8.500;2023-01-19T21:27:49;3.43;73.40
9723;DHT22;4900;49.306;8.500;2023-01-19T21:30:53;3.41;73.39